アンタナナリボ の空港の天気 - METARとTAF

イヴァト空港(アンタナナリボ) ( FMMI / TNR ) - マダガスカル アンタナナリボ
飛行場実況気象(Metar)
観測時間01/23 07:00 EAT (01/23 04:00 UTC)
風向・風速不定 1m/s
視程10km以上
天気現象
少しの雲 雲底高度 210m
全天の8割程度の雲 雲底高度 610m
気温19℃
湿度94%
気圧1017hPa
METARFMMI 230400Z VRB01KT 9999 FEW007 BKN020 19/18 Q1017 NOSIG
過去の天気等 Google飛行場航空写真 Wunderground天気予報

過去48時間のMETAR

飛行場予報(TAF)
発表時間: -
23日3時 EAT ~ 23日8時 EAT に 確率 30% で一時的に
視程4,000m
天気現象
23日13時 EAT ~ 24日3時 EAT に 確率 40% で一時的に
視程4,000m
天気現象雷雨
全天の8割程度の積乱雲 雲底高度 460m
TAF
FMMI 222300Z 2300/2406 VRB05KT 9999 FEW010 BKN020
PROB30 TEMPO 2300/2305 4000 RA
PROB40 TEMPO 2310/2324 4000 TSRA BKN015CB